Time;durP1;ratioP1;P1;durP2;ratioP2;P2;SDS_P1;SDS_P2;PMS_P1;PMS_P2;Temp;Humidity;BMP_temperature;BMP_pressure;BME280_temperature;BME280_humidity;BME280_pressure;Samples;Min_cycle;Max_cycle;Signal;HPM_P1;HPM_P2
2022/03/05 00:04:08;;;;;;;9.20;2.97;;;;;;;2.78;73.94;101225.44;10254227;28;20319;-67
2022/03/05 00:09:11;;;;;;;6.07;2.27;;;;;;;2.87;73.26;101235.13;10253786;28;20224;-64
2022/03/05 00:14:15;;;;;;;6.60;2.80;;;;;;;2.69;71.46;101224.25;10254180;28;20224;-65
2022/03/05 00:19:21;;;;;;;6.07;2.40;;;;;;;2.57;72.78;101224.72;10253607;28;20259;-65
2022/03/05 00:24:24;;;;;;;4.20;1.87;;;;;;;2.55;73.49;101228.03;10253648;28;20198;-65
2022/03/05 00:29:27;;;;;;;9.00;2.00;;;;;;;2.49;74.14;101220.97;10255201;28;20228;-66
2022/03/05 00:34:32;;;;;;;6.07;2.07;;;;;;;2.52;68.82;101213.41;10255822;28;20514;-66
2022/03/05 00:39:35;;;;;;;8.10;2.30;;;;;;;2.50;69.73;101216.75;10256612;28;20207;-68
2022/03/05 00:44:39;;;;;;;7.60;2.33;;;;;;;2.48;68.71;101215.81;10256241;28;20247;-67
2022/03/05 00:49:49;;;;;;;7.90;2.90;;;;;;;2.55;69.35;101210.97;10253865;28;20491;-68
2022/03/05 00:54:52;;;;;;;6.47;2.50;;;;;;;2.54;68.78;101206.66;10254035;28;20837;-65
2022/03/05 00:59:55;;;;;;;4.10;1.70;;;;;;;2.57;69.67;101204.22;10256077;28;20211;-66
2022/03/05 01:05:00;;;;;;;6.30;2.47;;;;;;;2.59;66.81;101209.38;10253674;28;20415;-67
2022/03/05 01:10:04;;;;;;;7.00;2.07;;;;;;;2.49;65.46;101208.19;10255665;28;20243;-66
2022/03/05 01:15:09;;;;;;;6.47;2.43;;;;;;;2.55;67.76;101203.28;10253024;28;20404;-67
2022/03/05 01:20:13;;;;;;;6.95;2.72;;;;;;;2.58;69.91;101210.19;10253161;28;20476;-68
2022/03/05 01:25:17;;;;;;;5.63;2.10;;;;;;;2.51;70.13;101205.66;10255433;28;20224;-68
2022/03/05 01:30:20;;;;;;;7.43;2.27;;;;;;;2.49;68.93;101205.63;10255117;28;20232;-67
2022/03/05 01:35:25;;;;;;;5.73;2.00;;;;;;;2.43;66.87;101207.97;10255338;28;20555;-67
2022/03/05 01:40:28;;;;;;;7.60;2.57;;;;;;;2.38;68.11;101207.78;10255191;28;20723;-70
2022/03/05 01:45:32;;;;;;;6.70;2.13;;;;;;;2.29;68.78;101220.28;10259383;28;20224;-67
2022/03/05 01:50:36;;;;;;;5.90;1.83;;;;;;;2.34;71.10;101221.31;10262558;28;20243;-71
2022/03/05 01:55:40;;;;;;;4.97;2.50;;;;;;;2.30;71.51;101224.56;10262105;28;20683;-70
2022/03/05 02:00:43;;;;;;;5.53;2.00;;;;;;;2.22;70.64;101230.22;10261952;28;20700;-69
2022/03/05 02:05:48;;;;;;;7.33;2.33;;;;;;;2.20;72.58;101222.50;10262095;28;20690;-69
2022/03/05 02:10:52;;;;;;;5.67;2.00;;;;;;;2.25;70.94;101227.78;10261399;28;20656;-68
2022/03/05 02:15:56;;;;;;;5.77;2.30;;;;;;;2.27;71.34;101224.47;10261336;28;20240;-70
2022/03/05 02:21:00;;;;;;;5.60;1.93;;;;;;;2.24;72.63;101221.78;10261245;28;20228;-66
2022/03/05 02:26:04;;;;;;;5.00;1.90;;;;;;;2.17;72.02;101219.81;10261119;28;20557;-68
2022/03/05 02:31:07;;;;;;;7.30;2.53;;;;;;;2.24;73.45;101215.81;10260867;28;20232;-68
2022/03/05 02:36:12;;;;;;;6.70;2.33;;;;;;;2.20;72.33;101213.94;10260496;28;20555;-67
2022/03/05 02:41:18;;;;;;;4.97;1.90;;;;;;;2.22;73.93;101218.31;10260791;28;20242;-66
2022/03/05 02:46:26;;;;;;;4.90;2.27;;;;;;;2.22;74.24;101217.44;10260366;28;20227;-65
2022/03/05 02:51:31;;;;;;;6.73;2.40;;;;;;;2.14;71.07;101224.81;10260190;28;20224;-71
2022/03/05 02:56:34;;;;;;;6.47;2.17;;;;;;;2.12;71.15;101212.78;10258731;28;20668;-67
2022/03/05 03:01:37;;;;;;;5.77;2.20;;;;;;;2.18;72.73;101219.00;10256928;28;20223;-68
2022/03/05 03:06:42;;;;;;;8.87;2.73;;;;;;;2.20;73.22;101227.63;10256350;28;20303;-66
2022/03/05 03:11:46;;;;;;;6.90;2.20;;;;;;;2.15;71.80;101223.13;10256224;28;20234;-66
2022/03/05 03:16:49;;;;;;;4.67;2.13;;;;;;;2.20;73.23;101221.63;10255912;28;20236;-64
2022/03/05 03:21:54;;;;;;;7.17;2.67;;;;;;;2.05;72.53;101227.03;9896349;28;10000277;-69
2022/03/05 03:26:57;;;;;;;5.53;2.03;;;;;;;2.06;72.86;101221.09;10216030;29;20250;-63
2022/03/05 03:32:01;;;;;;;6.40;2.00;;;;;;;2.05;71.89;101226.19;10216082;29;20316;-67
2022/03/05 03:37:06;;;;;;;5.23;1.90;;;;;;;2.06;74.97;101231.34;10215605;29;20968;-63
2022/03/05 03:42:09;;;;;;;4.63;2.13;;;;;;;2.08;74.61;101234.84;10215579;29;20220;-64
2022/03/05 03:47:13;;;;;;;6.70;2.80;;;;;;;2.05;72.99;101238.97;10215174;29;20220;-64
2022/03/05 03:52:18;;;;;;;8.60;2.17;;;;;;;1.92;72.83;101240.19;10215213;29;20542;-65
2022/03/05 03:57:21;;;;;;;5.90;1.80;;;;;;;1.98;74.25;101239.56;10214831;29;20227;-61
2022/03/05 04:02:24;;;;;;;6.33;2.30;;;;;;;1.94;73.58;101241.13;10214611;29;20221;-67
2022/03/05 04:12:50;;;;;;;6.87;2.90;;;;;;;2.05;76.37;101241.53;10211676;29;20420;-67
2022/03/05 04:17:53;;;;;;;443.03;209.87;;;;;;;2.00;75.08;101243.91;10214015;29;20231;-67
2022/03/05 04:22:58;;;;;;;5.93;2.97;;;;;;;1.96;74.68;101251.41;10241115;29;20230;-66
2022/03/05 04:28:02;;;;;;;6.30;2.70;;;;;;;1.95;75.24;101253.09;10253474;28;20220;-67
2022/03/05 04:33:05;;;;;;;6.63;2.40;;;;;;;1.96;74.76;101256.53;10253337;28;20250;-64
2022/03/05 04:38:10;;;;;;;7.83;3.03;;;;;;;1.95;76.98;101250.53;10253247;28;20224;-65
2022/03/05 04:43:13;;;;;;;7.73;2.57;;;;;;;1.88;76.29;101253.66;10253160;28;20323;-66
2022/03/05 04:48:16;;;;;;;7.70;2.60;;;;;;;1.87;75.67;101253.63;10253607;28;20226;-63
2022/03/05 04:53:21;;;;;;;6.87;2.50;;;;;;;1.96;77.11;101266.78;10252889;28;20235;-64
2022/03/05 04:58:24;;;;;;;5.63;2.13;;;;;;;1.86;76.94;101273.25;10252913;28;20302;-64
2022/03/05 05:03:27;;;;;;;6.23;2.37;;;;;;;1.92;77.12;101276.00;10253105;28;20233;-64
2022/03/05 05:08:32;;;;;;;6.03;2.60;;;;;;;2.00;77.73;101277.19;10252936;28;20236;-68
2022/03/05 05:13:35;;;;;;;6.07;2.57;;;;;;;1.94;76.38;101276.97;10252287;28;20235;-66
2022/03/05 05:18:39;;;;;;;7.37;3.53;;;;;;;1.86;77.56;101280.91;10254128;28;20692;-67
2022/03/05 05:23:43;;;;;;;7.37;2.70;;;;;;;1.97;78.66;101279.63;10227497;28;20231;-63
2022/03/05 05:28:46;;;;;;;10.77;2.97;;;;;;;1.94;77.76;101292.31;10221025;29;20562;-67
2022/03/05 05:33:50;;;;;;;8.27;3.10;;;;;;;1.97;78.24;101294.97;10220178;29;20540;-65
2022/03/05 05:38:55;;;;;;;10.60;3.33;;;;;;;1.95;78.15;101291.47;10220135;29;20228;-66
2022/03/05 05:43:58;;;;;;;8.20;3.30;;;;;;;1.88;77.63;101299.72;10220161;29;20229;-66
2022/03/05 05:49:02;;;;;;;6.67;3.13;;;;;;;1.96;79.36;101300.03;10219625;29;20227;-65
2022/03/05 05:54:08;;;;;;;7.50;2.63;;;;;;;1.99;78.30;101300.16;10219693;29;20244;-66
2022/03/05 05:59:11;;;;;;;7.70;3.40;;;;;;;2.02;79.96;101310.53;10221888;29;20221;-68
2022/03/05 06:04:14;;;;;;;6.23;2.73;;;;;;;1.97;78.17;101315.47;10219076;29;20228;-67
2022/03/05 06:09:19;;;;;;;8.17;2.93;;;;;;;2.03;79.66;101312.28;10219283;29;20316;-65
2022/03/05 06:14:22;;;;;;;10.17;3.07;;;;;;;2.13;80.08;101320.38;10219117;29;20229;-67
2022/03/05 06:19:25;;;;;;;9.53;2.97;;;;;;;2.19;77.50;101318.03;10218434;29;20249;-67
2022/03/05 06:24:30;;;;;;;6.87;2.83;;;;;;;2.24;77.87;101325.91;10227698;29;20563;-67
2022/03/05 06:29:33;;;;;;;7.37;3.00;;;;;;;2.15;77.53;101331.56;10257005;28;20228;-66
2022/03/05 06:34:37;;;;;;;8.30;2.87;;;;;;;2.30;78.01;101331.25;10257361;28;20266;-67
2022/03/05 06:39:41;;;;;;;7.27;3.43;;;;;;;2.21;76.85;101339.47;10257653;28;20563;-65
2022/03/05 06:44:47;;;;;;;10.57;3.90;;;;;;;2.30;77.09;101329.56;10257561;28;20247;-64
2022/03/05 06:49:50;;;;;;;7.43;3.40;;;;;;;2.36;76.64;101336.63;10257261;28;20238;-65
2022/03/05 06:54:55;;;;;;;7.70;3.47;;;;;;;2.52;77.48;101338.94;10256778;28;20659;-66
2022/03/05 06:59:58;;;;;;;7.07;3.27;;;;;;;2.54;77.24;101350.13;10256671;28;20226;-66
2022/03/05 07:05:02;;;;;;;11.83;3.63;;;;;;;2.66;77.29;101344.59;10256610;28;20224;-65
2022/03/05 07:10:10;;;;;;;7.10;3.33;;;;;;;2.66;76.05;101342.88;10256201;28;20219;-67
2022/03/05 07:15:13;;;;;;;9.33;3.37;;;;;;;2.74;74.09;101349.19;10256002;28;20287;-69
2022/03/05 07:20:17;;;;;;;10.50;3.73;;;;;;;2.80;74.54;101353.63;10255117;29;21012;-70
2022/03/05 07:25:22;;;;;;;11.17;3.63;;;;;;;2.78;74.05;101352.75;10239574;28;20205;-70
2022/03/05 07:30:26;;;;;;;7.83;3.27;;;;;;;3.01;75.00;101354.44;10216613;29;20197;-69
2022/03/05 07:35:29;;;;;;;7.47;3.27;;;;;;;3.04;73.27;101359.66;10215642;29;20213;-68
2022/03/05 07:40:34;;;;;;;6.93;3.20;;;;;;;2.98;71.28;101362.00;10215510;29;20244;-68
2022/03/05 07:45:37;;;;;;;5.83;2.87;;;;;;;2.88;71.03;101368.47;10215318;29;20700;-66
2022/03/05 07:50:40;;;;;;;11.30;3.70;;;;;;;3.01;71.45;101367.25;10214992;29;20221;-69
2022/03/05 07:55:45;;;;;;;13.53;3.37;;;;;;;3.09;70.75;101365.84;10214753;29;20225;-69
2022/03/05 08:00:48;;;;;;;10.23;3.27;;;;;;;3.15;70.03;101366.94;10214914;29;20189;-67
2022/03/05 08:05:53;;;;;;;9.60;3.77;;;;;;;3.28;69.68;101360.53;10214348;29;20282;-68
2022/03/05 08:10:57;;;;;;;7.53;3.07;;;;;;;3.39;68.91;101365.22;10214593;29;20552;-66
2022/03/05 08:16:01;;;;;;;7.87;2.83;;;;;;;3.48;68.85;101370.69;10214548;29;20228;-72
2022/03/05 08:21:04;;;;;;;8.10;3.10;;;;;;;3.66;68.27;101362.72;10214103;29;20520;-69
2022/03/05 08:26:13;;;;;;;7.70;2.70;;;;;;;3.84;68.07;101372.72;10236648;29;20196;-68
2022/03/05 08:31:16;;;;;;;6.13;2.43;;;;;;;3.91;66.96;101370.41;10253582;28;20180;-67
2022/03/05 08:36:20;;;;;;;10.23;3.10;;;;;;;4.08;66.17;101364.13;10254353;28;20196;-66
2022/03/05 08:41:25;;;;;;;6.40;2.60;;;;;;;4.41;65.44;101374.59;10253679;28;20200;-65
2022/03/05 08:46:29;;;;;;;6.37;2.33;;;;;;;4.26;64.95;101371.53;10253537;28;20648;-66
2022/03/05 08:51:32;;;;;;;8.87;3.03;;;;;;;4.45;64.69;101376.44;10253405;28;20906;-67
2022/03/05 08:56:37;;;;;;;11.10;2.60;;;;;;;4.54;63.58;101372.44;10252279;28;20210;-69
2022/03/05 09:01:40;;;;;;;6.63;2.60;;;;;;;4.78;63.84;101387.69;10252628;28;20191;-68
2022/03/05 09:06:44;;;;;;;5.67;2.63;;;;;;;4.64;61.83;101383.88;10252735;28;20265;-66
2022/03/05 09:11:48;;;;;;;5.63;2.17;;;;;;;4.73;61.09;101390.16;10252640;28;20226;-65
2022/03/05 09:16:52;;;;;;;7.37;2.67;;;;;;;4.81;60.33;101387.81;10252428;28;20547;-68
2022/03/05 09:21:55;;;;;;;9.87;2.50;;;;;;;4.95;60.54;101386.53;10252264;28;20196;-66
2022/03/05 09:27:00;;;;;;;7.80;2.93;;;;;;;4.97;59.90;101384.00;10223275;28;20193;-67
2022/03/05 09:32:04;;;;;;;8.10;2.43;;;;;;;4.86;59.67;101385.38;10212659;29;20256;-67
2022/03/05 09:37:08;;;;;;;10.60;2.10;;;;;;;5.00;60.12;101391.78;10212404;29;20201;-66
2022/03/05 09:42:12;;;;;;;6.77;2.77;;;;;;;4.86;59.78;101398.22;10212398;29;20283;-67
2022/03/05 09:47:17;;;;;;;4.83;2.47;;;;;;;4.68;59.70;101403.69;10212655;29;20232;-67
2022/03/05 09:52:20;;;;;;;7.07;2.10;;;;;;;4.60;59.36;101402.59;10212107;29;20272;-66
2022/03/05 09:57:25;;;;;;;6.33;2.13;;;;;;;4.51;59.18;101408.31;10212347;29;20255;-68
2022/03/05 10:02:28;;;;;;;7.97;2.33;;;;;;;4.36;59.93;101409.53;10212539;29;20201;-65
2022/03/05 10:07:31;;;;;;;5.33;1.80;;;;;;;4.23;58.73;101417.66;10216179;29;20196;-68
2022/03/05 10:12:36;;;;;;;9.80;2.03;;;;;;;4.02;56.05;101422.13;10218957;29;20216;-64
2022/03/05 10:17:54;;;;;;;8.53;2.00;;;;;;;3.91;56.75;101411.50;10218549;29;20268;-69
2022/03/05 10:23:01;;;;;;;6.87;2.10;;;;;;;3.99;58.62;101414.31;10218460;29;20228;-66
2022/03/05 10:28:10;;;;;;;5.17;1.80;;;;;;;4.03;56.79;101421.28;10256084;29;20196;-67
2022/03/05 10:33:28;;;;;;;4.80;1.97;;;;;;;4.07;57.22;101424.00;10257591;28;20759;-69
2022/03/05 10:38:47;;;;;;;5.67;2.63;;;;;;;3.97;56.04;101426.25;10257974;28;20532;-63
2022/03/05 10:44:07;;;;;;;8.03;2.53;;;;;;;3.99;57.60;101430.59;10257965;28;20188;-65
2022/03/05 10:49:16;;;;;;;6.10;2.33;;;;;;;4.08;57.66;101428.34;10256939;28;20660;-68
2022/03/05 10:54:27;;;;;;;8.77;2.40;;;;;;;4.18;57.25;101425.25;10257299;28;20528;-66
2022/03/05 10:59:35;;;;;;;5.37;2.10;;;;;;;4.29;57.63;101421.34;10257297;28;20180;-70
2022/03/05 11:04:39;;;;;;;8.30;2.40;;;;;;;4.30;57.32;101423.06;10258949;28;20231;-64
2022/03/05 11:09:44;;;;;;;8.10;2.20;;;;;;;4.37;56.85;101417.31;10259703;28;20279;-68
2022/03/05 11:14:50;;;;;;;7.40;2.03;;;;;;;4.59;57.21;101417.13;10259073;28;20244;-69
2022/03/05 11:19:53;;;;;;;4.73;1.70;;;;;;;4.37;54.37;101409.59;10259035;28;20196;-69
2022/03/05 11:24:57;;;;;;;5.53;1.73;;;;;;;4.22;54.50;101418.50;10258805;28;20218;-68
2022/03/05 11:30:05;;;;;;;4.87;1.90;;;;;;;4.28;54.61;101405.88;10258926;28;20207;-70
2022/03/05 11:35:20;;;;;;;4.93;2.10;;;;;;;4.26;56.70;101408.38;10258534;28;20250;-67
2022/03/05 11:40:36;;;;;;;5.23;1.90;;;;;;;4.24;55.71;101406.59;10255379;28;20560;-63
2022/03/05 11:45:47;;;;;;;6.40;2.13;;;;;;;4.06;54.74;101409.44;10255193;28;20234;-63
2022/03/05 11:50:52;;;;;;;8.83;2.40;;;;;;;4.28;54.41;101396.44;10255294;28;20227;-67
2022/03/05 11:55:56;;;;;;;6.60;1.97;;;;;;;4.45;53.61;101402.97;10254381;28;20239;-68
2022/03/05 12:01:47;;;;;;;10.33;3.87;;;;;;;4.25;53.59;101406.63;9885029;28;10000499;-66
2022/03/05 12:06:53;;;;;;;5.93;2.27;;;;;;;4.45;53.13;101405.56;10214535;29;20470;-66
2022/03/05 12:11:57;;;;;;;10.07;3.00;;;;;;;4.42;52.78;101408.03;10214481;29;20322;-67
2022/03/05 12:17:10;;;;;;;5.43;2.10;;;;;;;4.56;54.02;101390.47;10214013;29;20237;-67
2022/03/05 12:22:14;;;;;;;6.20;1.90;;;;;;;4.67;53.16;101397.69;10215447;29;20283;-69
2022/03/05 12:27:20;;;;;;;5.70;1.50;;;;;;;4.84;52.84;101389.59;10215334;29;20280;-69
2022/03/05 12:32:31;;;;;;;9.97;2.33;;;;;;;4.78;52.78;101392.84;10216823;29;20234;-71
2022/03/05 12:37:35;;;;;;;5.10;1.93;;;;;;;4.89;53.21;101382.88;10217217;29;20224;-68
2022/03/05 12:42:42;;;;;;;5.77;2.43;;;;;;;4.73;53.40;101384.13;10217017;29;20231;-64
2022/03/05 12:47:48;;;;;;;6.07;2.40;;;;;;;4.74;52.82;101381.59;10216712;29;20225;-67
2022/03/05 12:52:56;;;;;;;9.53;2.30;;;;;;;4.74;52.17;101379.03;10216183;29;20243;-68
2022/03/05 12:58:05;;;;;;;5.13;2.10;;;;;;;4.67;52.17;101379.69;10216429;29;20335;-66
2022/03/05 13:03:12;;;;;;;6.67;1.97;;;;;;;4.60;51.70;101375.19;10216196;29;20230;-65
2022/03/05 13:08:19;;;;;;;6.70;2.47;;;;;;;4.62;52.11;101378.66;10216206;29;20618;-69
2022/03/05 13:13:29;;;;;;;6.47;2.50;;;;;;;4.66;51.83;101377.06;10216087;29;20244;-66
2022/03/05 13:18:34;;;;;;;6.63;2.47;;;;;;;4.64;52.71;101365.88;10216144;29;20231;-69
2022/03/05 13:23:40;;;;;;;10.90;3.00;;;;;;;4.52;52.60;101376.63;10216156;29;20239;-67
2022/03/05 13:28:44;;;;;;;7.03;2.70;;;;;;;4.46;51.07;101379.03;10215684;29;20283;-67
2022/03/05 13:33:50;;;;;;;7.60;2.43;;;;;;;4.43;51.87;101371.25;10215493;29;20235;-66
2022/03/05 13:38:57;;;;;;;5.50;2.23;;;;;;;4.47;52.25;101377.31;10216032;29;20229;-69
2022/03/05 13:44:02;;;;;;;4.50;2.03;;;;;;;4.53;53.52;101374.97;10223271;29;20225;-68
2022/03/05 13:49:06;;;;;;;6.03;2.53;;;;;;;4.36;51.94;101392.44;10223007;29;20231;-67
2022/03/05 13:54:09;;;;;;;6.63;2.63;;;;;;;4.28;51.16;101388.75;10222574;29;20657;-68
2022/03/05 13:59:14;;;;;;;6.93;2.53;;;;;;;4.18;50.46;101386.72;10222590;29;20636;-66
2022/03/05 14:04:21;;;;;;;6.07;1.97;;;;;;;4.27;52.62;101388.69;10222518;29;20571;-70
2022/03/05 14:09:28;;;;;;;6.63;2.57;;;;;;;4.31;50.77;101385.41;10222119;29;20552;-69
2022/03/05 14:14:41;;;;;;;5.43;2.20;;;;;;;4.11;50.42;101384.75;10222122;29;20237;-65
2022/03/05 14:19:45;;;;;;;6.87;2.50;;;;;;;4.46;51.60;101384.19;10222137;29;20233;-67
2022/03/05 14:24:56;;;;;;;6.33;2.40;;;;;;;4.62;50.31;101394.09;10221605;29;20224;-67
2022/03/05 14:29:59;;;;;;;7.20;2.10;;;;;;;4.49;49.46;101393.66;10221649;29;20227;-65
2022/03/05 14:35:05;;;;;;;6.07;2.00;;;;;;;4.14;49.56;101390.00;10221267;29;20228;-66
2022/03/05 14:40:10;;;;;;;4.63;1.87;;;;;;;4.11;51.11;101395.03;10221102;29;20554;-68
2022/03/05 14:45:16;;;;;;;7.30;2.47;;;;;;;4.16;52.34;101397.78;10220909;29;20561;-66
2022/03/05 14:50:24;;;;;;;7.17;2.63;;;;;;;4.20;50.35;101397.03;10220756;29;20244;-71
2022/03/05 14:55:28;;;;;;;5.50;2.20;;;;;;;4.16;50.17;101395.22;10219928;29;20251;-66
2022/03/05 15:00:41;;;;;;;5.57;2.17;;;;;;;4.01;50.90;101393.00;10220164;29;20584;-65
2022/03/05 15:05:46;;;;;;;6.50;2.83;;;;;;;3.87;51.04;101396.81;10220053;29;20228;-67
2022/03/05 15:10:50;;;;;;;6.20;2.53;;;;;;;3.91;51.83;101401.22;10220192;29;20243;-70
2022/03/05 15:15:53;;;;;;;8.70;3.00;;;;;;;3.88;53.09;101403.72;10217167;29;20432;-67
2022/03/05 15:20:58;;;;;;;6.57;2.30;;;;;;;3.78;53.63;101411.91;10219921;29;20235;-68
2022/03/05 15:26:02;;;;;;;9.23;3.23;;;;;;;3.72;53.77;101410.81;10219379;29;20703;-67
2022/03/05 15:31:09;;;;;;;11.80;2.90;;;;;;;3.71;52.53;101409.09;10219353;29;20252;-69
2022/03/05 15:36:14;;;;;;;6.87;2.83;;;;;;;3.70;53.31;101418.47;10216404;29;20835;-68
2022/03/05 15:41:18;;;;;;;5.70;2.60;;;;;;;3.47;52.90;101427.94;10218675;29;20622;-67
2022/03/05 15:46:21;;;;;;;6.83;2.80;;;;;;;3.49;53.61;101421.16;10218451;29;20248;-67
2022/03/05 15:51:26;;;;;;;7.10;2.57;;;;;;;3.44;52.92;101425.28;10218312;29;20221;-66
2022/03/05 15:56:29;;;;;;;7.50;3.20;;;;;;;3.24;53.73;101427.94;10215131;29;20904;-66
2022/03/05 16:01:33;;;;;;;10.57;3.43;;;;;;;3.24;56.76;101426.25;10215361;29;20489;-68
2022/03/05 16:06:38;;;;;;;9.02;3.17;;;;;;;3.28;54.65;101430.66;10215168;29;20926;-68
2022/03/05 16:11:41;;;;;;;7.90;3.40;;;;;;;3.30;55.54;101430.72;10214939;29;20496;-68
2022/03/05 16:16:44;;;;;;;7.10;3.10;;;;;;;3.15;54.12;101435.28;10217419;29;20246;-66
2022/03/05 16:21:49;;;;;;;8.57;3.40;;;;;;;3.20;55.81;101436.34;10214817;29;20397;-68
2022/03/05 16:26:53;;;;;;;9.17;3.80;;;;;;;3.08;57.75;101438.44;10214569;29;20233;-66
2022/03/05 16:31:56;;;;;;;;;;;;;;;3.10;57.94;101445.41;10214480;29;20051;-67
2022/03/05 16:37:04;;;;;;;;;;;;;;;3.07;57.30;101444.41;10214019;29;20005;-67
2022/03/05 16:42:13;;;;;;;;;;;;;;;2.98;57.81;101450.06;9934376;28;10000495;-70
2022/03/05 16:47:16;;;;;;;;;;;;;;;2.91;57.44;101449.78;10293276;28;20021;-64
2022/03/05 16:52:21;;;;;;;;;;;;;;;2.73;57.40;101460.19;10293796;28;19922;-70
2022/03/05 16:57:25;;;;;;;;;;;;;;;2.72;57.88;101457.56;10293586;28;20239;-65
2022/03/05 17:02:28;;;;;;;;;;;;;;;2.60;60.36;101451.97;10293191;28;20361;-68
2022/03/05 17:07:33;;;;;;;;;;;;;;;2.56;60.88;101461.22;10293107;28;19922;-67
2022/03/05 17:12:47;;;;;;;;;;;;;;;2.52;60.36;101461.91;10294396;28;19922;-66
2022/03/05 17:17:50;;;;;;;;;;;;;;;2.50;61.09;101461.00;10299424;28;19936;-65
2022/03/05 17:22:55;;;;;;;;;;;;;;;2.40;59.84;101461.41;10289372;28;20013;-69
2022/03/05 17:27:58;;;;;;;;;;;;;;;2.41;58.90;101462.28;10260630;28;20353;-68
2022/03/05 17:33:01;;;;;;;;;;;;;;;2.34;61.09;101466.31;10260910;28;19932;-68
2022/03/05 17:38:06;;;;;;;;;;;;;;;2.30;60.67;101462.75;10259617;29;19933;-63
2022/03/05 17:43:10;;;;;;;;;;;;;;;2.27;61.86;101464.31;10220383;29;19949;-68
2022/03/05 17:48:13;;;;;;;;;;;;;;;2.21;61.38;101469.16;10220387;29;19926;-65
2022/03/05 17:53:19;;;;;;;;;;;;;;;2.15;61.66;101459.56;10220024;29;19923;-64
2022/03/05 17:58:22;;;;;;;;;;;;;;;2.11;59.36;101467.03;10219799;29;19923;-66
2022/03/05 18:03:25;;;;;;;;;;;;;;;2.12;60.82;101466.25;10221069;29;20256;-66
2022/03/05 18:08:30;;;;;;;;;;;;;;;2.15;60.12;101469.81;10254893;28;19922;-65
2022/03/05 18:13:33;;;;;;;;;;;;;;;2.09;58.91;101474.66;10257772;29;20271;-66
2022/03/05 18:18:38;;;;;;;;;;;;;;;2.07;60.61;101478.84;10257931;28;20362;-66
2022/03/05 18:23:43;;;;;;;;;;;;;;;2.15;58.85;101480.06;10257176;28;20037;-65
2022/03/05 18:28:46;;;;;;;;;;;;;;;2.08;58.68;101478.06;10251253;28;19923;-70
2022/03/05 18:33:49;;;;;;;;;;;;;;;2.05;59.73;101472.78;10254991;29;20016;-65
2022/03/05 18:38:53;;;;;;;;;;;;;;;2.10;60.55;101481.56;10246869;28;20373;-63
2022/03/05 18:43:57;;;;;;;;;;;;;;;2.10;62.31;101479.00;10262760;28;19936;-67
2022/03/05 18:49:06;;;;;;;;;;;;;;;2.19;61.41;101471.66;10254004;29;19922;-66
2022/03/05 18:54:11;;;;;;;;;;;;;;;2.18;60.72;101485.28;10256056;29;19932;-65
2022/03/05 18:59:14;;;;;;;;;;;;;;;2.09;60.48;101484.91;10255942;29;19926;-64
2022/03/05 19:04:17;;;;;;;;;;;;;;;2.08;59.94;101487.41;10256223;29;20017;-64
2022/03/05 19:09:22;;;;;;;;;;;;;;;2.02;58.34;101485.47;10255809;28;19929;-62
2022/03/05 19:14:25;;;;;;;;;;;;;;;2.05;57.49;101488.13;10254266;28;19923;-67
2022/03/05 19:19:34;;;;;;;;;;;;;;;2.08;57.75;101484.84;10255459;29;19922;-65
2022/03/05 19:24:39;;;;;;;;;;;;;;;2.04;56.77;101475.28;10254057;28;19929;-67
2022/03/05 19:29:43;;;;;;;;;;;;;;;2.07;58.10;101481.41;10255546;28;19922;-64
2022/03/05 19:34:46;;;;;;;;;;;;;;;2.15;58.61;101482.63;10254518;28;19922;-66
2022/03/05 19:39:50;;;;;;;;;;;;;;;2.14;58.09;101487.69;10252826;28;20266;-63
2022/03/05 19:44:53;;;;;;;;;;;;;;;2.18;56.53;101492.09;10254831;28;20300;-65
2022/03/05 19:49:56;;;;;;;;;;;;;;;2.17;56.57;101495.47;10253695;28;20355;-65
2022/03/05 19:55:01;;;;;;;;;;;;;;;2.16;57.32;101492.03;10254683;28;20422;-65
2022/03/05 20:00:05;;;;;;;;;;;;;;;2.20;59.30;101493.03;10253576;28;20009;-65
2022/03/05 20:05:08;;;;;;;;;;;;;;;2.26;56.71;101493.31;10252729;29;20302;-64
2022/03/05 20:10:14;;;;;;;;;;;;;;;2.25;56.05;101488.97;10253692;29;20275;-68
2022/03/05 20:15:18;;;;;;;;;;;;;;;2.26;56.22;101495.88;10251917;29;19922;-68
2022/03/05 20:20:21;;;;;;;;;;;;;;;2.21;56.48;101493.09;10253674;29;19922;-64
2022/03/05 20:25:26;;;;;;;;;;;;;;;2.30;55.60;101490.03;10253162;29;19989;-65
2022/03/05 20:30:29;;;;;;;;;;;;;;;2.26;56.88;101491.59;10235304;29;20445;-65
2022/03/05 20:35:33;;;;;;;;;;;;;;;2.22;56.38;101492.31;10251214;29;20012;-62
2022/03/05 20:40:37;;;;;;;;;;;;;;;2.23;57.53;101495.72;10252556;28;19923;-65
2022/03/05 20:45:43;;;;;;;;;;;;;;;2.11;56.48;101487.53;10253404;28;19926;-67
2022/03/05 20:50:46;;;;;;;;;;;;;;;2.12;59.79;101481.63;10253615;28;19933;-65
2022/03/05 20:55:51;;;;;;;;;;;;;;;2.16;60.63;101492.03;10253246;28;20150;-65
2022/03/05 21:00:54;;;;;;;;;;;;;;;2.17;58.42;101492.91;10253104;28;20342;-66
2022/03/05 21:05:57;;;;;;;;;;;;;;;2.19;58.22;101492.16;10253581;29;20013;-69
2022/03/05 21:11:02;;;;;;;;;;;;;;;2.17;58.42;101495.47;10253012;28;19924;-66
2022/03/05 21:16:05;;;;;;;;;;;;;;;2.12;58.39;101491.84;10252784;29;19922;-65
2022/03/05 21:21:09;;;;;;;;;;;;;;;2.21;60.03;101492.22;10253109;28;20299;-67
2022/03/05 21:26:13;;;;;;;;;;;;;;;2.23;61.15;101495.72;10253010;29;19926;-66
2022/03/05 21:31:16;;;;;;;;;;;;;;;2.28;59.76;101495.09;10252511;29;20302;-66
2022/03/05 21:36:19;;;;;;;;;;;;;;;2.27;57.62;101500.16;10252727;29;19922;-65
2022/03/05 21:41:24;;;;;;;;;;;;;;;2.22;60.22;101496.53;10252201;28;19937;-57
2022/03/05 21:46:27;;;;;;;;;;;;;;;2.15;59.12;101500.53;10252514;28;20357;-61
2022/03/05 21:51:30;;;;;;;;;;;;;;;2.11;59.09;101500.31;10252534;28;19922;-59
2022/03/05 21:56:35;;;;;;;;;;;;;;;2.05;58.15;101500.94;10252084;28;20057;-61
2022/03/05 22:01:39;;;;;;;;;;;;;;;1.91;56.79;101496.06;10254984;28;19929;-62
2022/03/05 22:06:43;;;;;;;;;;;;;;;1.99;56.89;101494.69;10259456;28;19937;-63
2022/03/05 22:11:47;;;;;;;;;;;;;;;1.95;56.66;101496.25;10259280;28;19960;-59
2022/03/05 22:16:51;;;;;;;;;;;;;;;2.05;57.81;101490.69;10259144;28;19929;-59
2022/03/05 22:21:54;;;;;;;;;;;;;;;2.03;57.11;101494.91;10258876;28;19932;-58
2022/03/05 22:26:58;;;;;;;;;;;;;;;2.06;58.75;101489.91;10258693;28;19922;-54
2022/03/05 22:32:01;;;;;;;;;;;;;;;2.03;58.14;101476.09;10258803;28;19923;-58
2022/03/05 22:37:04;;;;;;;;;;;;;;;2.05;57.94;101474.50;10258127;28;19922;-60
2022/03/05 22:42:09;;;;;;;;;;;;;;;2.06;58.63;101473.66;10225880;28;19933;-61
2022/03/05 22:47:12;;;;;;;;;;;;;;;2.03;59.32;101478.66;10221370;29;19933;-62
2022/03/05 22:52:15;;;;;;;;;;;;;;;2.06;60.20;101478.78;10221317;29;19923;-60
2022/03/05 22:57:20;;;;;;;;;;;;;;;2.07;59.48;101476.28;10220992;29;20325;-61
2022/03/05 23:13:06;;;;;;;;;;;;;;;1.80;60.08;101481.91;10219741;29;20271;-61
2022/03/05 23:18:09;;;;;;;;;;;;;;;1.75;59.43;101486.84;10218747;29;20353;-62
2022/03/05 23:23:12;;;;;;;;;;;;;;;1.73;59.44;101487.59;10216937;29;19929;-61
2022/03/05 23:28:16;;;;;;;;;;;;;;;1.72;60.09;101485.84;10216988;29;20263;-60
2022/03/05 23:33:19;;;;;;;;;;;;;;;1.73;59.84;101477.34;10216587;29;20017;-58
2022/03/05 23:38:22;;;;;;;;;;;;;;;1.72;58.71;101486.72;10216882;29;20013;-56
2022/03/05 23:43:27;;;;;;;;;;;;;;;1.79;59.83;101478.50;10219364;29;19933;-61
2022/03/05 23:48:30;;;;;;;;;;;;;;;1.72;58.55;101481.63;10219073;29;20395;-61
2022/03/05 23:53:33;;;;;;;;;;;;;;;1.71;60.29;101479.84;10219074;29;19933;-59
2022/03/05 23:58:37;;;;;;;;;;;;;;;1.65;60.07;101489.84;10218714;29;19922;-61
